Time,TemperatureF,DewpointF,PressureIn,WindDirection,WindDirectionDegrees,WindSpeedMPH,WindSpeedGustMPH,Humidity,HourlyPrecipIn,Conditions,Clouds,dailyrainin,SoftwareType,DateUTC
2013-02-22 00:13:00,21.7,14.0,30.15,ENE,66,3.0,5.0,72,0.00,,,0.00,weatherlink.com 1.10,2013-02-22 06:13:00,
2013-02-22 00:28:00,21.7,14.0,30.13,NE,56,3.0,5.0,73,0.00,,,0.00,weatherlink.com 1.10,2013-02-22 06:28:00,
2013-02-22 00:43:00,21.8,14.0,30.12,NE,49,0.0,5.0,73,0.00,,,0.00,weatherlink.com 1.10,2013-02-22 06:43:00,
2013-02-22 00:58:00,22.1,15.0,30.10,NE,46,2.0,7.0,74,0.00,,,0.00,weatherlink.com 1.10,2013-02-22 06:58:00,
2013-02-22 01:13:00,22.0,15.0,30.10,East,86,1.0,4.0,74,0.00,,,0.00,weatherlink.com 1.10,2013-02-22 07:13:00,
2013-02-22 01:28:00,21.3,16.0,30.09,NE,53,1.0,6.0,81,0.00,,,0.00,weatherlink.com 1.10,2013-02-22 07:28:00,
2013-02-22 01:43:00,20.4,17.0,30.08,ENE,57,1.0,6.0,87,0.00,,,0.00,weatherlink.com 1.10,2013-02-22 07:43:00,
2013-02-22 01:58:00,20.1,17.0,30.07,NE,40,2.0,7.0,89,0.00,,,0.00,weatherlink.com 1.10,2013-02-22 07:58:00,
2013-02-22 02:13:00,19.7,17.0,30.06,ENE,58,1.0,3.0,89,0.00,,,0.00,weatherlink.com 1.10,2013-02-22 08:13:00,
2013-02-22 02:28:00,19.6,17.0,30.06,NE,37,3.0,3.0,90,0.00,,,0.00,weatherlink.com 1.10,2013-02-22 08:28:00,
2013-02-22 02:43:00,19.5,17.0,30.05,ENE,63,0.0,2.0,90,0.00,,,0.00,weatherlink.com 1.10,2013-02-22 08:43:00,
2013-02-22 02:59:00,19.6,17.0,30.04,NE,34,0.0,2.0,91,0.00,,,0.00,weatherlink.com 1.10,2013-02-22 08:59:00,
2013-02-22 03:14:00,19.8,18.0,30.03,North,349,0.0,1.0,91,0.00,,,0.00,weatherlink.com 1.10,2013-02-22 09:14:00,
2013-02-22 03:29:00,20.0,18.0,30.04,NE,50,0.0,1.0,92,0.00,,,0.00,weatherlink.com 1.10,2013-02-22 09:29:00,
2013-02-22 03:44:00,20.2,18.0,30.03,NE,51,0.0,1.0,92,0.00,,,0.00,weatherlink.com 1.10,2013-02-22 09:44:00,
2013-02-22 03:59:00,20.3,18.0,30.02,NNE,23,0.0,1.0,92,0.00,,,0.00,weatherlink.com 1.10,2013-02-22 09:59:00,
2013-02-22 04:14:00,20.4,19.0,30.01,NNE,23,1.0,2.0,92,0.00,,,0.00,weatherlink.com 1.10,2013-02-22 10:14:00,
2013-02-22 04:29:00,20.4,19.0,30.01,ENE,59,2.0,2.0,93,0.00,,,0.00,weatherlink.com 1.10,2013-02-22 10:29:00,
2013-02-22 04:44:00,20.4,19.0,30.00,NE,55,0.0,3.0,93,0.00,,,0.00,weatherlink.com 1.10,2013-02-22 10:44:00,
2013-02-22 04:59:00,20.5,19.0,30.00,NE,44,1.0,2.0,93,0.00,,,0.00,weatherlink.com 1.10,2013-02-22 10:59:00,
2013-02-22 05:14:00,20.5,19.0,30.00,NNE,16,0.0,2.0,93,0.00,,,0.00,weatherlink.com 1.10,2013-02-22 11:14:00,
2013-02-22 05:29:00,20.5,19.0,30.00,ENE,60,0.0,2.0,93,0.00,,,0.00,weatherlink.com 1.10,2013-02-22 11:29:00,
2013-02-22 05:44:00,20.5,19.0,30.00,NE,34,0.0,2.0,93,0.00,,,0.00,weatherlink.com 1.10,2013-02-22 11:44:00,
2013-02-22 05:59:00,20.5,19.0,29.99,North,354,0.0,2.0,93,0.00,,,0.00,weatherlink.com 1.10,2013-02-22 11:59:00,
2013-02-22 06:14:00,20.4,19.0,29.99,NNE,30,0.0,2.0,93,0.00,,,0.00,weatherlink.com 1.10,2013-02-22 12:14:00,
2013-02-22 06:29:00,20.4,19.0,29.98,NE,53,0.0,3.0,93,0.00,,,0.00,weatherlink.com 1.10,2013-02-22 12:29:00,
2013-02-22 06:44:00,20.4,19.0,29.98,NE,44,1.0,4.0,93,0.00,,,0.00,weatherlink.com 1.10,2013-02-22 12:44:00,
2013-02-22 07:00:00,20.4,19.0,29.98,NE,53,0.0,2.0,93,0.00,,,0.00,weatherlink.com 1.10,2013-02-22 13:00:00,
2013-02-22 07:14:00,20.4,19.0,29.98,ENE,60,1.0,2.0,93,0.00,,,0.00,weatherlink.com 1.10,2013-02-22 13:14:00,
2013-02-22 07:29:00,20.4,19.0,29.98,NNE,33,1.0,3.0,93,0.00,,,0.00,weatherlink.com 1.10,2013-02-22 13:29:00,
2013-02-22 07:44:00,20.5,19.0,29.97,NE,54,1.0,2.0,93,0.00,,,0.00,weatherlink.com 1.10,2013-02-22 13:44:00,
2013-02-22 07:59:00,20.6,19.0,29.97,NE,53,2.0,3.0,93,0.00,,,0.00,weatherlink.com 1.10,2013-02-22 13:59:00,
2013-02-22 08:14:00,20.8,19.0,29.96,East,79,0.0,2.0,93,0.00,,,0.00,weatherlink.com 1.10,2013-02-22 14:14:00,
2013-02-22 08:29:00,20.9,19.0,29.96,North,360,1.0,2.0,93,0.00,,,0.00,weatherlink.com 1.10,2013-02-22 14:29:00,
2013-02-22 08:44:00,21.1,19.0,29.96,NE,56,0.0,3.0,93,0.00,,,0.00,weatherlink.com 1.10,2013-02-22 14:44:00,
2013-02-22 08:59:00,21.5,20.0,29.96,NE,41,1.0,3.0,93,0.00,,,0.00,weatherlink.com 1.10,2013-02-22 14:59:00,
2013-02-22 09:14:00,21.9,20.0,29.96,NNE,32,2.0,3.0,93,0.00,,,0.00,weatherlink.com 1.10,2013-02-22 15:14:00,
2013-02-22 09:29:00,22.1,20.0,29.95,NE,46,1.0,3.0,93,0.00,,,0.00,weatherlink.com 1.10,2013-02-22 15:29:00,
2013-02-22 09:44:00,22.5,21.0,29.95,North,8,2.0,3.0,93,0.00,,,0.00,weatherlink.com 1.10,2013-02-22 15:44:00,
2013-02-22 09:59:00,23.1,21.0,29.95,North,354,0.0,3.0,93,0.00,,,0.00,weatherlink.com 1.10,2013-02-22 15:59:00,
2013-02-22 10:14:00,23.8,22.0,29.94,NE,41,1.0,3.0,92,0.00,,,0.00,weatherlink.com 1.10,2013-02-22 16:14:00,
2013-02-22 10:29:00,24.3,22.0,29.94,ENE,58,3.0,3.0,92,0.00,,,0.00,weatherlink.com 1.10,2013-02-22 16:29:00,
2013-02-22 10:44:00,25.5,23.0,29.94,NE,56,1.0,4.0,91,0.00,,,0.00,weatherlink.com 1.10,2013-02-22 16:44:00,
2013-02-22 10:59:00,25.8,23.0,29.94,NNE,19,1.0,6.0,89,0.00,,,0.00,weatherlink.com 1.10,2013-02-22 16:59:00,
2013-02-22 11:14:00,26.2,23.0,29.93,North,354,1.0,4.0,88,0.00,,,0.00,weatherlink.com 1.10,2013-02-22 17:14:00,
2013-02-22 11:30:00,26.3,23.0,29.93,NNE,33,2.0,3.0,86,0.00,,,0.00,weatherlink.com 1.10,2013-02-22 17:30:00,
2013-02-22 11:45:00,26.2,23.0,29.93,NNE,25,0.0,4.0,86,0.00,,,0.00,weatherlink.com 1.10,2013-02-22 17:45:00,
2013-02-22 12:00:00,26.9,23.0,29.93,NNW,334,1.0,4.0,85,0.00,,,0.00,weatherlink.com 1.10,2013-02-22 18:00:00,
2013-02-22 12:15:00,27.7,23.0,29.92,NE,38,1.0,3.0,83,0.00,,,0.00,weatherlink.com 1.10,2013-02-22 18:15:00,
2013-02-22 12:30:00,28.5,23.0,29.92,NE,56,2.0,3.0,81,0.00,,,0.00,weatherlink.com 1.10,2013-02-22 18:30:00,
2013-02-22 12:45:00,28.4,23.0,29.91,NNE,25,1.0,2.0,79,0.00,,,0.00,weatherlink.com 1.10,2013-02-22 18:45:00,
2013-02-22 13:00:00,30.2,24.0,29.91,ENE,57,1.0,1.0,76,0.00,,,0.00,weatherlink.com 1.10,2013-02-22 19:00:00,
2013-02-22 13:15:00,28.9,22.0,29.90,ENE,77,0.0,2.0,76,0.00,,,0.00,weatherlink.com 1.10,2013-02-22 19:15:00,
2013-02-22 13:30:00,28.4,23.0,29.90,ENE,70,0.0,3.0,79,0.00,,,0.00,weatherlink.com 1.10,2013-02-22 19:30:00,
2013-02-22 13:45:00,28.7,22.0,29.89,ENE,58,0.0,2.0,75,0.00,,,0.00,weatherlink.com 1.10,2013-02-22 19:45:00,
2013-02-22 14:00:00,28.2,22.0,29.89,ENE,57,4.0,4.0,79,0.00,,,0.00,weatherlink.com 1.10,2013-02-22 20:00:00,
2013-02-22 14:15:00,28.4,22.0,29.89,ENE,70,0.0,3.0,78,0.00,,,0.00,weatherlink.com 1.10,2013-02-22 20:15:00,
2013-02-22 14:30:00,28.5,22.0,29.89,NNE,18,0.0,3.0,77,0.00,,,0.00,weatherlink.com 1.10,2013-02-22 20:30:00,
2013-02-22 14:45:00,29.5,23.0,29.89,WNW,288,0.0,2.0,75,0.00,,,0.00,weatherlink.com 1.10,2013-02-22 20:45:00,
2013-02-22 15:00:00,28.9,23.0,29.89,North,6,1.0,2.0,77,0.00,,,0.00,weatherlink.com 1.10,2013-02-22 21:00:00,
2013-02-22 15:15:00,28.8,23.0,29.89,North,357,0.0,2.0,78,0.01,,,0.01,weatherlink.com 1.10,2013-02-22 21:15:00,
2013-02-22 15:30:00,29.0,24.0,29.89,WNW,291,1.0,2.0,80,0.01,,,0.01,weatherlink.com 1.10,2013-02-22 21:30:00,
2013-02-22 15:45:00,29.0,23.0,29.89,West,269,0.0,1.0,79,0.01,,,0.01,weatherlink.com 1.10,2013-02-22 21:45:00,
2013-02-22 16:00:00,28.2,22.0,29.89,WNW,295,0.0,3.0,79,0.01,,,0.01,weatherlink.com 1.10,2013-02-22 22:00:00,
2013-02-22 16:15:00,28.1,22.0,29.90,WNW,294,0.0,1.0,79,0.00,,,0.01,weatherlink.com 1.10,2013-02-22 22:15:00,
2013-02-22 16:30:00,27.8,22.0,29.90,NW,309,0.0,3.0,80,0.00,,,0.01,weatherlink.com 1.10,2013-02-22 22:30:00,
2013-02-22 16:45:00,27.2,23.0,29.91,WSW,256,0.0,4.0,83,0.00,,,0.01,weatherlink.com 1.10,2013-02-22 22:45:00,
2013-02-22 17:00:00,27.0,22.0,29.91,WNW,298,1.0,2.0,82,0.00,,,0.01,weatherlink.com 1.10,2013-02-22 23:00:00,
2013-02-22 17:15:00,26.6,22.0,29.91,West,278,0.0,3.0,83,0.00,,,0.01,weatherlink.com 1.10,2013-02-22 23:15:00,
2013-02-22 17:30:00,26.5,23.0,29.91,WSW,258,0.0,2.0,85,0.00,,,0.01,weatherlink.com 1.10,2013-02-22 23:30:00,
2013-02-22 17:45:00,26.1,23.0,29.91,West,281,1.0,2.0,86,0.00,,,0.01,weatherlink.com 1.10,2013-02-22 23:45:00,
2013-02-22 18:00:00,25.9,22.0,29.92,NW,308,0.0,3.0,86,0.00,,,0.01,weatherlink.com 1.10,2013-02-23 00:00:00,
2013-02-22 18:15:00,25.8,22.0,29.92,WNW,285,0.0,3.0,86,0.00,,,0.01,weatherlink.com 1.10,2013-02-23 00:15:00,
2013-02-22 18:30:00,25.7,22.0,29.92,WNW,298,1.0,3.0,86,0.00,,,0.01,weatherlink.com 1.10,2013-02-23 00:30:00,
2013-02-22 18:45:00,25.6,22.0,29.91,West,273,0.0,4.0,86,0.00,,,0.01,weatherlink.com 1.10,2013-02-23 00:45:00,
2013-02-22 19:00:00,25.6,22.0,29.92,WSW,256,0.0,3.0,86,0.00,,,0.01,weatherlink.com 1.10,2013-02-23 01:00:00,
2013-02-22 19:15:00,25.5,22.0,29.92,WNW,295,0.0,3.0,86,0.00,,,0.01,weatherlink.com 1.10,2013-02-23 01:15:00,
2013-02-22 19:30:00,25.4,22.0,29.92,West,274,0.0,3.0,85,0.00,,,0.01,weatherlink.com 1.10,2013-02-23 01:30:00,
2013-02-22 19:45:00,25.3,21.0,29.91,West,281,0.0,3.0,85,0.00,,,0.01,weatherlink.com 1.10,2013-02-23 01:45:00,
2013-02-22 20:00:00,25.3,22.0,29.91,West,280,1.0,3.0,86,0.00,,,0.01,weatherlink.com 1.10,2013-02-23 02:00:00,
2013-02-22 20:15:00,25.2,22.0,29.91,NW,311,1.0,4.0,86,0.00,,,0.01,weatherlink.com 1.10,2013-02-23 02:15:00,
2013-02-22 20:30:00,25.2,22.0,29.91,WNW,289,1.0,4.0,86,0.00,,,0.01,weatherlink.com 1.10,2013-02-23 02:30:00,
2013-02-22 20:45:00,25.2,22.0,29.91,WNW,297,0.0,3.0,86,0.00,,,0.01,weatherlink.com 1.10,2013-02-23 02:45:00,
2013-02-22 21:00:00,25.1,22.0,29.90,NW,310,1.0,2.0,86,0.00,,,0.01,weatherlink.com 1.10,2013-02-23 03:00:00,
2013-02-22 21:15:00,24.8,21.0,29.90,WNW,286,0.0,2.0,86,0.00,,,0.01,weatherlink.com 1.10,2013-02-23 03:15:00,
2013-02-22 21:31:00,24.5,21.0,29.90,NW,310,0.0,1.0,86,0.00,,,0.01,weatherlink.com 1.10,2013-02-23 03:31:00,
2013-02-22 21:45:00,24.2,21.0,29.90,WNW,283,1.0,1.0,86,0.00,,,0.01,weatherlink.com 1.10,2013-02-23 03:45:00,
2013-02-22 22:01:00,23.3,20.0,29.90,West,269,0.0,0.0,86,0.00,,,0.01,weatherlink.com 1.10,2013-02-23 04:01:00,
2013-02-22 22:15:00,22.0,19.0,29.90,West,269,0.0,0.0,86,0.00,,,0.01,weatherlink.com 1.10,2013-02-23 04:15:00,
2013-02-22 22:30:00,20.6,17.0,29.90,West,269,0.0,0.0,87,0.00,,,0.01,weatherlink.com 1.10,2013-02-23 04:30:00,
2013-02-22 22:45:00,19.9,17.0,29.90,West,269,0.0,0.0,89,0.00,,,0.01,weatherlink.com 1.10,2013-02-23 04:45:00,
2013-02-22 23:00:00,20.0,18.0,29.90,West,269,0.0,0.0,90,0.00,,,0.01,weatherlink.com 1.10,2013-02-23 05:00:00,
2013-02-22 23:15:00,20.1,18.0,29.90,West,269,0.0,0.0,90,0.00,,,0.01,weatherlink.com 1.10,2013-02-23 05:15:00,
2013-02-22 23:31:00,20.2,18.0,29.90,West,269,0.0,0.0,91,0.00,,,0.01,weatherlink.com 1.10,2013-02-23 05:31:00,
2013-02-22 23:45:00,21.0,19.0,29.90,West,276,0.0,1.0,92,0.00,,,0.01,weatherlink.com 1.10,2013-02-23 05:45:00,